createdAt,value
2018-05-13T00:00:24.844Z,14.60
2018-05-13T00:00:56.989Z,14.60
2018-05-13T00:01:28.411Z,14.60
2018-05-13T00:01:59.843Z,14.60
2018-05-13T00:02:31.250Z,14.60
2018-05-13T00:03:02.676Z,14.60
2018-05-13T00:03:34.123Z,14.60
2018-05-13T00:04:06.272Z,14.60
2018-05-13T00:04:44.624Z,14.50
2018-05-13T00:05:16.047Z,14.60
2018-05-13T00:05:47.464Z,14.50
2018-05-13T00:06:18.876Z,14.60
2018-05-13T00:06:50.322Z,14.60
2018-05-13T00:07:21.739Z,14.50
2018-05-13T00:07:53.127Z,14.50
2018-05-13T00:08:25.263Z,14.50
2018-05-13T00:08:57.459Z,14.50
2018-05-13T00:09:43.775Z,14.40
2018-05-13T00:10:15.211Z,14.50
2018-05-13T00:10:46.612Z,14.50
2018-05-13T00:11:18.754Z,14.40
2018-05-13T00:11:50.168Z,14.40
2018-05-13T00:12:21.566Z,14.50
2018-05-13T00:12:53.699Z,14.40
2018-05-13T00:13:25.868Z,14.40
2018-05-13T00:13:58.051Z,14.40
2018-05-13T00:14:29.464Z,14.40
2018-05-13T00:15:00.864Z,14.40
2018-05-13T00:15:32.267Z,14.40
2018-05-13T00:16:04.444Z,14.40
2018-05-13T00:16:35.844Z,14.40
2018-05-13T00:17:08.007Z,14.40
2018-05-13T00:17:39.413Z,14.40
2018-05-13T00:18:10.808Z,14.40
2018-05-13T00:18:42.948Z,14.40
2018-05-13T00:19:15.132Z,14.40
2018-05-13T00:19:47.272Z,14.40
2018-05-13T00:20:18.667Z,14.40
2018-05-13T00:20:50.063Z,14.40
2018-05-13T00:21:22.204Z,14.40
2018-05-13T00:21:53.604Z,14.40
2018-05-13T00:22:25.019Z,14.40
2018-05-13T00:22:57.160Z,14.40
2018-05-13T00:23:28.564Z,14.30
2018-05-13T00:23:59.977Z,14.30
2018-05-13T00:24:31.775Z,14.30
2018-05-13T00:25:03.200Z,14.30
2018-05-13T00:25:34.608Z,14.30
2018-05-13T00:26:06.024Z,14.30
2018-05-13T00:26:37.460Z,14.30
2018-05-13T00:27:08.856Z,14.30
2018-05-13T00:27:40.258Z,14.30
2018-05-13T00:28:11.671Z,14.30
2018-05-13T00:28:44.553Z,14.30
2018-05-13T00:29:15.950Z,14.20
2018-05-13T00:29:47.387Z,14.20
2018-05-13T00:30:18.779Z,14.20
2018-05-13T00:30:50.179Z,14.20
2018-05-13T00:31:21.603Z,14.20
2018-05-13T00:31:53.016Z,14.20
2018-05-13T00:32:25.156Z,14.20
2018-05-13T00:32:56.557Z,14.20
2018-05-13T00:33:27.997Z,14.20
2018-05-13T00:33:59.403Z,14.30
2018-05-13T00:34:30.811Z,14.20
2018-05-13T00:35:03.747Z,14.20
2018-05-13T00:35:35.173Z,14.20
2018-05-13T00:36:07.313Z,14.20
2018-05-13T00:36:38.704Z,14.20
2018-05-13T00:37:10.125Z,14.20
2018-05-13T00:37:41.528Z,14.20
2018-05-13T00:38:12.932Z,14.20
2018-05-13T00:38:44.332Z,14.20
2018-05-13T00:39:16.497Z,14.20
2018-05-13T00:39:48.624Z,14.20
2018-05-13T00:40:20.065Z,14.20
2018-05-13T00:40:52.224Z,14.20
2018-05-13T00:41:23.654Z,14.20
2018-05-13T00:41:55.173Z,14.20
2018-05-13T00:42:41.492Z,14.10
2018-05-13T00:43:12.904Z,14.20
2018-05-13T00:43:44.300Z,14.10
2018-05-13T00:44:16.440Z,14.10
2018-05-13T00:44:47.872Z,14.10
2018-05-13T00:45:19.381Z,14.10
2018-05-13T00:45:50.720Z,14.20
2018-05-13T00:46:22.147Z,14.20
2018-05-13T00:46:53.545Z,14.10
2018-05-13T00:47:24.945Z,14.10
2018-05-13T00:47:56.331Z,14.10
2018-05-13T00:48:27.753Z,14.10
2018-05-13T00:48:59.152Z,14.10
2018-05-13T00:49:30.544Z,14.10
2018-05-13T00:50:01.976Z,14.10
2018-05-13T00:50:33.439Z,14.10
2018-05-13T00:51:12.571Z,14.10
2018-05-13T00:51:43.964Z,14.10
2018-05-13T00:52:15.372Z,14.10
2018-05-13T00:52:46.781Z,14.10
2018-05-13T00:53:18.188Z,14.10
2018-05-13T00:54:53.368Z,14.10
2018-05-13T00:55:31.714Z,14.10
2018-05-13T00:56:03.895Z,14.10
2018-05-13T00:56:35.292Z,14.10
2018-05-13T00:57:06.699Z,14.10
2018-05-13T00:57:38.095Z,14.10
2018-05-13T00:58:10.247Z,14.10
2018-05-13T00:58:41.668Z,14.10
2018-05-13T00:59:14.540Z,14.00
2018-05-13T00:59:45.940Z,14.00
2018-05-13T01:00:17.348Z,14.00
2018-05-13T01:00:49.487Z,14.00
2018-05-13T01:01:20.920Z,14.00
2018-05-13T01:01:52.327Z,14.00
2018-05-13T01:02:23.768Z,14.00
2018-05-13T01:02:55.203Z,14.00
2018-05-13T01:03:26.624Z,14.00
2018-05-13T01:03:58.759Z,14.00
2018-05-13T01:04:30.165Z,14.00
2018-05-13T01:05:01.565Z,14.00
2018-05-13T01:05:32.971Z,14.00
2018-05-13T01:06:04.397Z,14.00
2018-05-13T01:06:35.861Z,13.90
2018-05-13T01:07:07.312Z,13.90
2018-05-13T01:07:39.460Z,13.90
2018-05-13T01:08:11.628Z,13.90
2018-05-13T01:08:43.792Z,13.90
2018-05-13T01:09:15.936Z,13.90
2018-05-13T01:09:47.332Z,13.90
2018-05-13T01:10:18.784Z,13.90
2018-05-13T01:10:50.183Z,13.90
2018-05-13T01:11:21.612Z,13.90
2018-05-13T01:11:53.816Z,13.90
2018-05-13T01:12:25.256Z,13.90
2018-05-13T01:12:56.676Z,13.90
2018-05-13T01:13:28.087Z,13.80
2018-05-13T01:13:59.516Z,13.80
2018-05-13T01:14:30.933Z,13.80
2018-05-13T01:15:02.391Z,13.80
2018-05-13T01:15:33.792Z,13.80
2018-05-13T01:16:05.265Z,13.80
2018-05-13T01:16:36.680Z,13.80
2018-05-13T01:17:08.115Z,13.80
2018-05-13T01:17:40.247Z,13.80
2018-05-13T01:18:18.650Z,13.80
2018-05-13T01:18:50.796Z,13.80
2018-05-13T01:19:22.195Z,13.80
2018-05-13T01:19:53.632Z,13.80
2018-05-13T01:20:25.056Z,13.80
2018-05-13T01:20:56.471Z,13.80
2018-05-13T01:21:27.867Z,13.70
2018-05-13T01:21:59.299Z,13.80
2018-05-13T01:22:30.729Z,13.70
2018-05-13T01:23:02.871Z,13.80
2018-05-13T01:23:35.011Z,13.70
2018-05-13T01:24:07.892Z,13.70
2018-05-13T01:24:40.064Z,13.70
2018-05-13T01:25:12.231Z,13.70
2018-05-13T01:25:44.368Z,13.70
2018-05-13T01:26:15.772Z,13.70
2018-05-13T01:26:47.192Z,13.70
2018-05-13T01:27:18.595Z,13.80
2018-05-13T01:27:50.019Z,13.70
2018-05-13T01:28:22.904Z,13.70
2018-05-13T01:28:54.307Z,13.70
2018-05-13T01:29:25.736Z,13.70
2018-05-13T01:29:57.185Z,13.70
2018-05-13T01:30:28.592Z,13.70
2018-05-13T01:31:00.736Z,13.70
2018-05-13T01:31:32.138Z,13.70
2018-05-13T01:32:03.587Z,13.70
2018-05-13T01:32:35.020Z,13.70
2018-05-13T01:33:06.488Z,13.70
2018-05-13T01:33:37.888Z,13.70
2018-05-13T01:34:09.284Z,13.70
2018-05-13T01:34:40.689Z,13.70
2018-05-13T01:35:12.084Z,13.70
2018-05-13T01:35:44.219Z,13.70
2018-05-13T01:36:15.620Z,13.60
2018-05-13T01:36:47.048Z,13.70
2018-05-13T01:37:18.452Z,13.70
2018-05-13T01:37:50.625Z,13.70
2018-05-13T01:38:22.092Z,13.60
2018-05-13T01:38:53.515Z,13.60
2018-05-13T01:39:25.671Z,13.60
2018-05-13T01:40:04.875Z,13.60
2018-05-13T01:40:36.277Z,13.60
2018-05-13T01:41:07.680Z,13.60
2018-05-13T01:41:39.813Z,13.60
2018-05-13T01:42:11.324Z,13.60
2018-05-13T01:42:42.744Z,13.60
2018-05-13T01:43:14.140Z,13.60
2018-05-13T01:43:46.344Z,13.60
2018-05-13T01:44:17.740Z,13.60
2018-05-13T01:44:49.148Z,13.60
2018-05-13T01:45:20.547Z,13.60
2018-05-13T01:45:52.699Z,13.60
2018-05-13T01:46:24.224Z,13.60
2018-05-13T01:46:56.395Z,13.60
2018-05-13T01:47:28.560Z,13.60
2018-05-13T01:48:00.699Z,13.60
2018-05-13T01:48:32.099Z,13.50
2018-05-13T01:49:03.609Z,13.60
2018-05-13T01:49:34.944Z,13.50
2018-05-13T01:50:06.368Z,13.60
2018-05-13T01:50:37.776Z,13.60
2018-05-13T01:51:09.176Z,13.60
2018-05-13T01:51:41.332Z,13.60
2018-05-13T01:52:13.488Z,13.50
2018-05-13T01:52:44.918Z,13.50
2018-05-13T01:53:16.328Z,13.60
2018-05-13T01:53:47.719Z,13.50
2018-05-13T01:54:20.175Z,13.50
2018-05-13T01:54:52.320Z,13.50
2018-05-13T01:55:23.724Z,13.50
2018-05-13T01:55:55.135Z,13.50
2018-05-13T01:56:27.275Z,13.50
2018-05-13T01:56:59.467Z,13.50
2018-05-13T01:57:30.900Z,13.50
2018-05-13T01:58:03.068Z,13.50
2018-05-13T01:58:34.479Z,13.50
2018-05-13T01:59:05.909Z,13.50
2018-05-13T01:59:37.331Z,13.50
2018-05-13T02:00:08.728Z,13.50
2018-05-13T02:00:40.159Z,13.50
2018-05-13T02:01:12.304Z,13.50
2018-05-13T02:01:44.435Z,13.40
2018-05-13T02:02:16.596Z,13.50
2018-05-13T02:02:48.768Z,13.40
2018-05-13T02:03:20.928Z,13.50
2018-05-13T02:03:52.348Z,13.50
2018-05-13T02:04:23.775Z,13.50
2018-05-13T02:04:55.212Z,13.50
2018-05-13T02:05:26.610Z,13.40
2018-05-13T02:05:58.759Z,13.40
2018-05-13T02:06:30.155Z,13.40
2018-05-13T02:07:01.568Z,13.40
2018-05-13T02:07:32.984Z,13.40
2018-05-13T02:08:04.387Z,13.40
2018-05-13T02:08:35.816Z,13.40
2018-05-13T02:09:07.221Z,13.40
2018-05-13T02:09:38.627Z,13.40
2018-05-13T02:10:10.843Z,13.40
2018-05-13T02:10:42.244Z,13.40
2018-05-13T02:11:13.652Z,13.40
2018-05-13T02:11:45.075Z,13.30
2018-05-13T02:12:16.488Z,13.30
2018-05-13T02:12:48.628Z,13.30
2018-05-13T02:13:20.028Z,13.30
2018-05-13T02:13:51.419Z,13.30
2018-05-13T02:14:23.557Z,13.30
2018-05-13T02:14:54.953Z,13.30
2018-05-13T02:15:26.379Z,13.30
2018-05-13T02:15:58.516Z,13.30
2018-05-13T02:16:29.910Z,13.30
2018-05-13T02:17:01.328Z,13.30
2018-05-13T02:17:32.751Z,13.30
2018-05-13T02:18:04.899Z,13.20
2018-05-13T02:18:36.303Z,13.30
2018-05-13T02:19:07.714Z,13.20
2018-05-13T02:19:39.124Z,13.20
2018-05-13T02:20:10.521Z,13.30
2018-05-13T02:20:41.981Z,13.20
2018-05-13T02:21:13.379Z,13.20
2018-05-13T02:21:44.804Z,13.20
2018-05-13T02:22:16.220Z,13.20
2018-05-13T02:22:48.371Z,13.20
2018-05-13T02:23:19.772Z,13.30
2018-05-13T02:23:51.169Z,13.30
2018-05-13T02:24:22.572Z,13.30
2018-05-13T02:24:53.975Z,13.30
2018-05-13T02:25:26.119Z,13.20
2018-05-13T02:25:58.614Z,13.20
2018-05-13T02:26:30.028Z,13.20
2018-05-13T02:27:01.419Z,13.20
2018-05-13T02:27:32.816Z,13.30
2018-05-13T02:28:04.948Z,13.20
2018-05-13T02:28:36.343Z,13.20
2018-05-13T02:29:07.736Z,13.20
2018-05-13T02:29:39.148Z,13.20
2018-05-13T02:30:10.544Z,13.20
2018-05-13T02:30:41.952Z,13.20
2018-05-13T02:31:20.273Z,13.20
2018-05-13T02:31:51.671Z,13.20
2018-05-13T02:32:23.075Z,13.20
2018-05-13T02:32:54.483Z,13.20
2018-05-13T02:33:25.887Z,13.20
2018-05-13T02:33:57.278Z,13.20
2018-05-13T02:34:28.676Z,13.20
2018-05-13T02:35:00.071Z,13.20
2018-05-13T02:35:32.224Z,13.10
2018-05-13T02:36:03.655Z,13.10
2018-05-13T02:36:35.088Z,13.20
2018-05-13T02:37:06.481Z,13.10
2018-05-13T02:37:37.888Z,13.10
2018-05-13T02:38:10.040Z,13.10
2018-05-13T02:38:42.192Z,13.10
2018-05-13T02:39:15.067Z,13.10
2018-05-13T02:39:46.471Z,13.10
2018-05-13T02:40:17.894Z,13.10
2018-05-13T02:40:49.303Z,13.20
2018-05-13T02:41:21.464Z,13.10
2018-05-13T02:41:53.656Z,13.10
2018-05-13T02:42:25.244Z,13.10
2018-05-13T02:42:56.673Z,13.20
2018-05-13T02:43:28.105Z,13.10
2018-05-13T02:43:59.512Z,13.10
2018-05-13T02:44:30.925Z,13.10
2018-05-13T02:45:02.365Z,13.10
2018-05-13T02:45:33.765Z,13.10
2018-05-13T02:46:12.046Z,13.10
2018-05-13T02:46:43.452Z,13.10
2018-05-13T02:47:14.877Z,13.10
2018-05-13T02:47:46.308Z,13.10
2018-05-13T02:48:17.741Z,13.10
2018-05-13T02:48:49.156Z,13.00
2018-05-13T02:49:20.550Z,13.00
2018-05-13T02:49:51.964Z,13.10
2018-05-13T02:50:23.360Z,13.00
2018-05-13T02:50:55.508Z,13.10
2018-05-13T02:51:26.907Z,13.00
2018-05-13T02:51:58.315Z,13.10
2018-05-13T02:52:30.483Z,13.00
2018-05-13T02:53:01.890Z,13.00
2018-05-13T02:53:33.293Z,13.00
2018-05-13T02:54:04.708Z,13.00
2018-05-13T02:54:36.108Z,13.00
2018-05-13T02:55:07.502Z,13.00
2018-05-13T02:55:38.935Z,13.00
2018-05-13T02:56:10.387Z,13.00
2018-05-13T02:56:41.788Z,13.00
2018-05-13T02:57:13.943Z,12.90
2018-05-13T02:57:45.671Z,12.90
2018-05-13T02:58:17.072Z,12.90
2018-05-13T02:58:48.484Z,13.00
2018-05-13T02:59:20.629Z,13.00
2018-05-13T02:59:52.028Z,12.90
2018-05-13T03:00:23.427Z,12.90
2018-05-13T03:00:54.856Z,12.90
2018-05-13T03:01:27.008Z,12.90
2018-05-13T03:01:59.188Z,12.90
2018-05-13T03:02:31.403Z,12.90
2018-05-13T03:03:02.804Z,12.90
2018-05-13T03:03:34.212Z,12.90
2018-05-13T03:04:05.611Z,12.90
2018-05-13T03:04:37.031Z,12.90
2018-05-13T03:05:15.519Z,12.80
2018-05-13T03:05:47.661Z,12.80
2018-05-13T03:06:19.072Z,12.80
2018-05-13T03:06:50.468Z,12.80
2018-05-13T03:07:21.870Z,12.90
2018-05-13T03:07:53.275Z,12.80
2018-05-13T03:08:24.715Z,12.80
2018-05-13T03:08:56.148Z,12.90
2018-05-13T03:09:27.544Z,12.80
2018-05-13T03:09:58.951Z,12.80
2018-05-13T03:10:30.345Z,12.80
2018-05-13T03:11:02.491Z,12.80
2018-05-13T03:11:33.883Z,12.80
2018-05-13T03:12:05.319Z,12.80
2018-05-13T03:12:36.752Z,12.80
2018-05-13T03:13:08.146Z,12.80
2018-05-13T03:13:39.592Z,12.80
2018-05-13T03:14:11.761Z,12.80
2018-05-13T03:14:43.931Z,12.80
2018-05-13T03:15:15.365Z,12.80
2018-05-13T03:15:47.599Z,12.80
2018-05-13T03:16:18.998Z,12.80
2018-05-13T03:16:50.514Z,12.80
2018-05-13T03:17:21.852Z,12.80
2018-05-13T03:17:54.003Z,12.80
2018-05-13T03:18:26.178Z,12.80
2018-05-13T03:18:58.403Z,12.80
2018-05-13T03:19:29.787Z,12.80
2018-05-13T03:20:01.936Z,12.80
2018-05-13T03:20:33.377Z,12.80
2018-05-13T03:21:05.524Z,12.80
2018-05-13T03:21:36.979Z,12.80
2018-05-13T03:22:08.404Z,12.80
2018-05-13T03:22:39.792Z,12.80
2018-05-13T03:23:11.194Z,12.80
2018-05-13T03:23:43.344Z,12.80
2018-05-13T03:24:14.769Z,12.80
2018-05-13T03:24:46.167Z,12.80
2018-05-13T03:25:17.564Z,12.80
2018-05-13T03:25:48.979Z,12.80
2018-05-13T03:26:20.388Z,12.80
2018-05-13T03:26:51.799Z,12.80
2018-05-13T03:27:23.956Z,12.80
2018-05-13T03:27:56.145Z,12.80
2018-05-13T03:28:27.572Z,12.80
2018-05-13T03:28:59.706Z,12.80
2018-05-13T03:29:31.139Z,12.80
2018-05-13T03:30:02.584Z,12.80
2018-05-13T03:30:34.000Z,12.80
2018-05-13T03:31:05.404Z,12.80
2018-05-13T03:31:37.548Z,12.80
2018-05-13T03:32:08.948Z,12.70
2018-05-13T03:32:40.344Z,12.80
2018-05-13T03:33:12.483Z,12.80
2018-05-13T03:33:43.879Z,12.80
2018-05-13T03:34:15.277Z,12.80
2018-05-13T03:34:47.451Z,12.80
2018-05-13T03:35:18.863Z,12.80
2018-05-13T03:35:50.264Z,12.80
2018-05-13T03:36:21.656Z,12.80
2018-05-13T03:36:53.804Z,12.80
2018-05-13T03:37:25.207Z,12.80
2018-05-13T03:37:56.599Z,12.80
2018-05-13T03:38:28.000Z,12.80
2018-05-13T03:38:59.396Z,12.80
2018-05-13T03:39:30.828Z,12.90
2018-05-13T03:40:03.012Z,12.80
2018-05-13T03:40:34.417Z,12.80
2018-05-13T03:41:05.824Z,12.80
2018-05-13T03:41:37.240Z,12.80
2018-05-13T03:42:08.635Z,12.80
2018-05-13T03:42:41.779Z,12.80
2018-05-13T03:43:13.183Z,12.80
2018-05-13T03:43:45.324Z,12.80
2018-05-13T03:44:17.463Z,12.80
2018-05-13T03:44:48.864Z,12.80
2018-05-13T03:45:20.307Z,12.80
2018-05-13T03:45:51.712Z,12.80
2018-05-13T03:46:23.120Z,12.80
2018-05-13T03:46:54.553Z,12.80
2018-05-13T03:47:25.944Z,12.80
2018-05-13T03:47:58.080Z,12.80
2018-05-13T03:48:29.479Z,12.80
2018-05-13T03:49:00.873Z,12.80
2018-05-13T03:49:33.020Z,12.80
2018-05-13T03:50:04.416Z,12.80
2018-05-13T03:50:35.863Z,12.80
2018-05-13T03:51:07.268Z,12.80
2018-05-13T03:51:39.419Z,12.80
2018-05-13T03:52:11.559Z,12.90
2018-05-13T03:52:42.959Z,12.80
2018-05-13T03:53:14.363Z,12.80
2018-05-13T03:53:46.512Z,12.90
2018-05-13T03:54:18.663Z,12.90
2018-05-13T03:54:50.059Z,12.90
2018-05-13T03:55:21.471Z,12.90
2018-05-13T03:55:52.924Z,12.90
2018-05-13T03:56:24.353Z,12.90
2018-05-13T03:56:55.804Z,12.90
2018-05-13T03:57:27.232Z,12.90
2018-05-13T03:57:58.664Z,12.90
2018-05-13T03:58:30.100Z,12.90
2018-05-13T03:59:01.492Z,12.90
2018-05-13T03:59:32.891Z,12.90
2018-05-13T04:00:04.339Z,12.90
2018-05-13T04:00:36.488Z,12.90
2018-05-13T04:01:07.922Z,12.90
2018-05-13T04:01:39.337Z,12.90
2018-05-13T04:02:10.738Z,12.90
2018-05-13T04:02:42.124Z,13.00
2018-05-13T04:03:13.520Z,13.00
2018-05-13T04:03:45.657Z,13.00
2018-05-13T04:04:17.815Z,13.00
2018-05-13T04:04:49.239Z,13.00
2018-05-13T04:05:20.651Z,13.00
2018-05-13T04:05:52.083Z,13.00
2018-05-13T04:06:23.539Z,13.00
2018-05-13T04:06:54.964Z,13.00
2018-05-13T04:07:26.361Z,13.00
2018-05-13T04:09:27.076Z,13.10
2018-05-13T04:11:22.501Z,13.10
2018-05-13T04:12:06.880Z,13.20
2018-05-13T04:12:50.544Z,13.10
2018-05-13T04:13:34.220Z,13.10
2018-05-13T04:14:17.863Z,13.20
2018-05-13T04:15:01.445Z,13.20
2018-05-13T04:15:32.823Z,13.20
2018-05-13T04:16:05.008Z,13.20
2018-05-13T04:16:37.151Z,13.30
2018-05-13T04:17:08.596Z,13.20
2018-05-13T04:17:40.005Z,13.20
2018-05-13T04:18:11.397Z,13.30
2018-05-13T04:18:43.540Z,13.30
2018-05-13T04:19:15.696Z,13.30
2018-05-13T04:19:47.094Z,13.30
2018-05-13T04:20:18.494Z,13.30
2018-05-13T04:20:50.635Z,13.30
2018-05-13T04:21:22.028Z,13.30
2018-05-13T04:21:53.420Z,13.30
2018-05-13T04:22:25.616Z,13.30
2018-05-13T04:22:57.007Z,13.30
2018-05-13T04:23:28.408Z,13.30
2018-05-13T04:23:59.816Z,13.30
2018-05-13T04:24:31.963Z,13.40
2018-05-13T04:25:03.376Z,13.40
2018-05-13T04:25:34.790Z,13.40
2018-05-13T04:26:06.217Z,13.40
2018-05-13T04:26:45.364Z,13.40
2018-05-13T04:27:16.791Z,13.40
2018-05-13T04:27:48.207Z,13.40
2018-05-13T04:28:20.353Z,13.40
2018-05-13T04:28:52.515Z,13.50
2018-05-13T04:29:23.915Z,13.50
2018-05-13T04:29:55.352Z,13.50
2018-05-13T04:30:26.739Z,13.50
2018-05-13T04:30:58.899Z,13.60
2018-05-13T04:31:30.296Z,13.50
2018-05-13T04:32:01.728Z,13.60
2018-05-13T04:32:33.135Z,13.60
2018-05-13T04:33:05.297Z,13.60
2018-05-13T04:33:37.442Z,13.60
2018-05-13T04:34:28.919Z,13.60
2018-05-13T04:35:00.315Z,13.60
2018-05-13T04:35:31.707Z,13.60
2018-05-13T04:36:04.609Z,13.70
2018-05-13T04:36:36.756Z,13.70
2018-05-13T04:37:08.160Z,13.70
2018-05-13T04:37:39.577Z,13.70
2018-05-13T04:38:11.004Z,13.70
2018-05-13T04:38:43.144Z,13.80
2018-05-13T04:39:15.468Z,13.80
2018-05-13T04:39:46.887Z,13.80
2018-05-13T04:40:18.332Z,13.90
2018-05-13T04:40:49.720Z,13.90
2018-05-13T04:41:21.122Z,13.90
2018-05-13T04:41:52.528Z,13.90
2018-05-13T04:42:24.657Z,14.00
2018-05-13T04:42:56.260Z,13.90
2018-05-13T04:43:27.684Z,14.00
2018-05-13T04:43:59.095Z,14.00
2018-05-13T04:44:31.243Z,14.10
2018-05-13T04:45:02.688Z,14.10
2018-05-13T04:45:34.084Z,14.10
2018-05-13T04:46:05.487Z,14.10
2018-05-13T04:46:36.901Z,14.10
2018-05-13T04:47:08.344Z,14.20
2018-05-13T04:47:39.749Z,14.20
2018-05-13T04:48:11.159Z,14.30
2018-05-13T04:48:43.351Z,14.30
2018-05-13T04:49:14.752Z,14.30
2018-05-13T04:49:46.893Z,14.50
2018-05-13T04:50:19.066Z,14.50
2018-05-13T04:50:51.207Z,14.50
2018-05-13T04:51:22.604Z,14.50
2018-05-13T04:51:53.995Z,14.50
2018-05-13T04:52:25.405Z,14.50
2018-05-13T04:52:56.816Z,14.60
2018-05-13T04:53:28.216Z,14.60
2018-05-13T04:53:59.649Z,14.70
2018-05-13T04:54:31.048Z,14.70
2018-05-13T04:55:02.488Z,14.70
2018-05-13T04:55:33.904Z,14.70
2018-05-13T04:56:06.046Z,14.80
2018-05-13T04:56:37.444Z,14.80
2018-05-13T04:57:08.844Z,14.80
2018-05-13T04:57:40.263Z,14.90
2018-05-13T04:58:11.656Z,14.90
2018-05-13T04:58:43.056Z,14.90
2018-05-13T04:59:14.478Z,14.90
2018-05-13T04:59:45.872Z,15.00
2018-05-13T05:00:17.271Z,15.00
2018-05-13T05:00:48.667Z,15.00
2018-05-13T05:01:20.064Z,15.00
2018-05-13T05:01:52.213Z,15.10
2018-05-13T05:02:23.624Z,15.10
2018-05-13T05:02:55.067Z,15.20
2018-05-13T05:03:26.470Z,15.20
2018-05-13T05:03:58.608Z,15.20
2018-05-13T05:04:30.031Z,15.20
2018-05-13T05:05:01.434Z,15.20
2018-05-13T05:05:32.827Z,15.30
2018-05-13T05:06:04.250Z,15.30
2018-05-13T05:06:35.666Z,15.30
2018-05-13T05:07:07.056Z,15.30
2018-05-13T05:07:39.211Z,15.40
2018-05-13T05:08:10.616Z,15.40
2018-05-13T05:08:42.016Z,15.50
2018-05-13T05:09:13.427Z,15.50
2018-05-13T05:09:45.620Z,15.60
2018-05-13T05:10:17.044Z,15.60
2018-05-13T05:10:48.436Z,15.60
2018-05-13T05:11:19.840Z,15.60
2018-05-13T05:11:51.984Z,15.70
2018-05-13T05:12:23.375Z,15.70
2018-05-13T05:12:54.784Z,15.80
2018-05-13T05:13:26.934Z,15.90
2018-05-13T05:13:59.076Z,15.90
2018-05-13T05:14:30.479Z,15.90
2018-05-13T05:15:01.903Z,16.00
2018-05-13T05:15:33.315Z,16.00
2018-05-13T05:16:05.463Z,16.20
2018-05-13T05:16:36.871Z,16.10
2018-05-13T05:17:08.274Z,16.20
2018-05-13T05:17:39.672Z,16.30
2018-05-13T05:18:11.093Z,16.30
2018-05-13T05:18:42.491Z,16.40
2018-05-13T05:19:13.936Z,16.40
2018-05-13T05:19:45.352Z,16.50
2018-05-13T05:20:16.816Z,16.50
2018-05-13T05:20:48.239Z,16.50
2018-05-13T05:21:20.380Z,16.70
2018-05-13T05:21:51.783Z,16.60
2018-05-13T05:22:23.213Z,16.80
2018-05-13T05:22:54.648Z,16.80
2018-05-13T05:23:26.066Z,16.90
2018-05-13T05:23:58.208Z,17.00
2018-05-13T05:24:29.640Z,17.00
2018-05-13T05:25:01.060Z,17.10
2018-05-13T05:25:32.504Z,17.20
2018-05-13T05:26:03.919Z,17.20
2018-05-13T05:26:35.325Z,17.30
2018-05-13T05:27:06.760Z,17.40
2018-05-13T05:27:38.152Z,17.40
2018-05-13T05:28:09.602Z,17.50
2018-05-13T05:28:41.024Z,17.60
2018-05-13T05:29:12.428Z,17.60
2018-05-13T05:29:43.820Z,17.70
2018-05-13T05:30:15.229Z,17.80
2018-05-13T05:30:47.719Z,17.90
2018-05-13T05:31:19.123Z,17.80
2018-05-13T05:31:50.520Z,18.00
2018-05-13T05:32:21.955Z,18.00
2018-05-13T05:32:53.351Z,18.00
2018-05-13T05:33:24.748Z,18.00
2018-05-13T05:33:56.147Z,18.00
2018-05-13T05:34:28.304Z,18.10
2018-05-13T05:35:00.464Z,18.10
2018-05-13T05:35:32.596Z,18.10
2018-05-13T05:36:04.049Z,18.10
2018-05-13T05:36:35.443Z,18.20
2018-05-13T05:37:06.831Z,18.20
2018-05-13T05:37:38.229Z,18.20
2018-05-13T05:38:09.628Z,18.20
2018-05-13T05:38:41.055Z,18.20
2018-05-13T05:39:12.457Z,18.20
2018-05-13T05:39:43.864Z,18.20
2018-05-13T05:40:15.260Z,18.20
2018-05-13T05:40:46.664Z,18.30
2018-05-13T05:41:18.083Z,18.30
2018-05-13T05:41:50.223Z,18.20
2018-05-13T05:42:22.371Z,18.20
2018-05-13T05:42:53.824Z,18.20
2018-05-13T05:43:26.144Z,18.30
2018-05-13T05:43:57.609Z,18.20
2018-05-13T05:44:29.033Z,18.30
2018-05-13T05:45:00.428Z,18.30
2018-05-13T05:45:32.563Z,18.30
2018-05-13T05:46:03.972Z,18.20
2018-05-13T05:46:35.415Z,18.20
2018-05-13T05:47:06.817Z,18.40
2018-05-13T05:47:38.224Z,18.30
2018-05-13T05:48:09.633Z,18.30
2018-05-13T05:48:41.032Z,18.30
2018-05-13T05:49:13.167Z,18.40
2018-05-13T05:49:44.559Z,18.40
2018-05-13T05:50:15.952Z,18.30
2018-05-13T05:50:47.343Z,18.30
2018-05-13T05:51:18.741Z,18.30
2018-05-13T05:51:50.183Z,18.20
2018-05-13T05:52:21.578Z,18.20
2018-05-13T05:52:52.972Z,18.20
2018-05-13T05:53:25.115Z,18.20
2018-05-13T05:53:56.511Z,18.20
2018-05-13T05:54:27.921Z,18.20
2018-05-13T05:55:00.060Z,18.30
2018-05-13T05:55:32.937Z,18.20
2018-05-13T05:56:04.340Z,18.30
2018-05-13T05:56:35.780Z,18.30
2018-05-13T05:57:07.224Z,18.30
2018-05-13T05:57:38.633Z,18.30
2018-05-13T05:58:10.772Z,18.30
2018-05-13T05:58:42.171Z,18.30
2018-05-13T05:59:13.569Z,18.30
2018-05-13T05:59:45.716Z,18.40
2018-05-13T06:00:17.856Z,18.50
2018-05-13T06:00:49.252Z,18.50
2018-05-13T06:01:20.658Z,18.60
2018-05-13T06:01:52.840Z,18.60
2018-05-13T06:02:24.295Z,18.60
2018-05-13T06:02:55.684Z,18.60
2018-05-13T06:03:27.084Z,18.70
2018-05-13T06:03:58.479Z,18.80
2018-05-13T06:04:29.904Z,18.80
2018-05-13T06:05:01.313Z,18.90
2018-05-13T06:05:32.747Z,18.90
2018-05-13T06:06:04.148Z,19.00
2018-05-13T06:06:35.544Z,19.00
2018-05-13T06:07:06.943Z,19.00
2018-05-13T06:07:38.376Z,19.10
2018-05-13T06:08:10.513Z,19.10
2018-05-13T06:08:41.914Z,19.00
2018-05-13T06:09:13.311Z,19.10
2018-05-13T06:09:46.191Z,19.20
2018-05-13T06:10:17.582Z,19.10
2018-05-13T06:10:49.005Z,19.10
2018-05-13T06:11:20.419Z,19.20
2018-05-13T06:11:52.564Z,19.30
2018-05-13T06:12:24.716Z,19.30
2018-05-13T06:12:56.150Z,19.30
2018-05-13T06:13:27.544Z,19.30
2018-05-13T06:13:58.968Z,19.50
2018-05-13T06:14:31.126Z,19.50
2018-05-13T06:15:03.271Z,19.60
2018-05-13T06:15:35.406Z,19.60
2018-05-13T06:16:06.804Z,19.50
2018-05-13T06:16:38.215Z,19.60
2018-05-13T06:17:10.356Z,19.50
2018-05-13T06:17:41.756Z,19.50
2018-05-13T06:18:13.183Z,19.50
2018-05-13T06:18:44.610Z,19.50
2018-05-13T06:19:16.749Z,19.40
2018-05-13T06:19:48.142Z,19.40
2018-05-13T06:20:19.532Z,19.40
2018-05-13T06:20:50.924Z,19.50
2018-05-13T06:21:22.327Z,19.50
2018-05-13T06:21:54.532Z,19.50
2018-05-13T06:22:25.924Z,19.40
2018-05-13T06:22:57.316Z,19.40
2018-05-13T06:23:28.757Z,19.40
2018-05-13T06:24:00.168Z,19.50
2018-05-13T06:24:32.304Z,19.60
2018-05-13T06:25:04.525Z,19.70
2018-05-13T06:25:35.892Z,19.60
2018-05-13T06:26:07.308Z,19.70
2018-05-13T06:26:38.712Z,19.80
2018-05-13T06:27:10.103Z,19.80
2018-05-13T06:27:41.516Z,19.80
2018-05-13T06:28:12.919Z,19.90
2018-05-13T06:28:45.108Z,19.80
2018-05-13T06:29:16.501Z,19.80
2018-05-13T06:29:47.903Z,19.80
2018-05-13T06:30:19.305Z,19.90
2018-05-13T06:30:50.708Z,20.00
2018-05-13T06:31:22.105Z,20.00
2018-05-13T06:31:53.596Z,20.10
2018-05-13T06:32:24.977Z,20.10
2018-05-13T06:32:57.107Z,20.10
2018-05-13T06:33:28.510Z,20.00
2018-05-13T06:33:59.933Z,20.10
2018-05-13T06:34:31.332Z,20.10
2018-05-13T06:35:02.753Z,20.20
2018-05-13T06:35:34.156Z,20.10
2018-05-13T06:36:05.551Z,20.20
2018-05-13T06:36:36.952Z,20.20
2018-05-13T06:37:08.373Z,20.20
2018-05-13T06:37:39.799Z,20.20
2018-05-13T06:38:11.951Z,20.30
2018-05-13T06:38:44.091Z,20.40
2018-05-13T06:39:15.519Z,20.40
2018-05-13T06:39:46.911Z,20.40
2018-05-13T06:40:18.312Z,20.40
2018-05-13T06:40:51.193Z,20.30
2018-05-13T06:41:22.595Z,20.30
2018-05-13T06:41:53.993Z,20.30
2018-05-13T06:42:26.136Z,20.50
2018-05-13T06:42:57.542Z,20.50
2018-05-13T06:43:29.083Z,20.50
2018-05-13T06:44:00.480Z,20.50
2018-05-13T06:44:32.644Z,20.50
2018-05-13T06:45:04.791Z,20.50
2018-05-13T06:45:36.191Z,20.50
2018-05-13T06:46:07.580Z,20.60
2018-05-13T06:46:39.720Z,20.50
2018-05-13T06:47:11.882Z,20.40
2018-05-13T06:47:43.291Z,20.40
2018-05-13T06:48:14.696Z,20.50
2018-05-13T06:48:46.100Z,20.50
2018-05-13T06:49:17.499Z,20.50
2018-05-13T06:49:48.927Z,20.50
2018-05-13T06:50:20.352Z,20.60
2018-05-13T06:50:52.595Z,20.70
2018-05-13T06:51:24.121Z,20.70
2018-05-13T06:51:55.376Z,20.70
2018-05-13T06:52:27.528Z,20.80
2018-05-13T06:52:58.931Z,20.70
2018-05-13T06:53:30.333Z,20.70
2018-05-13T06:54:01.749Z,20.80